Elsinore, Utah
Current Conditions -  °F | °C
As of 7:52 AM on Thursday 23 Oct 2014 (Local Time) from KMLF Reporting Station
Clear Clear  
Wind Chill: 32°   Ceiling: Unl
Heat Index: 39°   Visibility: 10mi
Dew Point: 28°   Wind: 12mph
Humidity: 65%   Direction: 200°SSW
Pressure: 30.18"   Gusts: NA
Location:  38.68°N, 112.15°W
Report Text: KMLF 231352Z AUTO 20010KT 10SM CLR 04/M02 A3018 RMK AO2 SLP206 T00391022 TSNO
Loading
Personal Weather Stations






























Interactive Weather Map
Tropical Storm Tracking
New forecast layout! Learn more

10-Day Weather Forecast

Advertisements
Track Severe Weather on mobile